PATK/TKA METAR and TAF weather

Enter ICAO airport designator
Station Type Date Time Source
PATK METAR 2019/06/26 15:53 UTC NOAA

PATK 261553Z 00000KT 10SM CLR 15/12 A3015 RMK AO2 SLP211 T01500117


Station Type Date Time Source
PATK Decoded METAR 2019/06/26 15:53 UTC NOAA

TALKEETNA AIRPORT, AK, United States (PATK) 62-19N 150-06W 109M
Jun 26, 2019 - 11:53 AM EDT / 2019.06.26 1553 UTC
Wind: Calm:0
Visibility: 10 mile(s):0
Sky conditions: clear
Temperature: 59.0 F (15.0 C)
Dew Point: 53.1 F (11.7 C)
Relative Humidity: 80%
Pressure (altimeter): 30.15 in. Hg (1020 hPa)
ob: PATK 261553Z 00000KT 10SM CLR 15/12 A3015 RMK AO2 SLP211 T01500117
cycle: 16

Station Type Date Time Source
PATK TAF 2019/06/26 12:36 UTC NOAA

TAF PATK 261134Z 2612/2712 VRB03KT P6SM FEW050
FM262100 22007KT P6SM SKC

Example: see airport list